Kezdőlap
METAR-TAF:

METAR-TAF

Repülőterek :

Jaroszlavl, Oroszország

földrajzi szélesség: 57-33-38N, földrajzi hosszúság: 040-09-27E, magasság: 87 m

Jelenlegi meteorológiai megfigyelések

A jelentés 36 perccel ezelõtt készült, 10:30 UTC
Déli szél 8 kt
Hőmérséklet 1°C
Páratartalom 75%
Légköri nyomás 1018 hPa
Látótávolság 10 km, vagy több
Borult 4300 lábon

METAR: UUDL 131030Z 19004MPS 9999 OVC043 01/M03 Q1018 R23/010060 NOSIG RMK QFE755

Idő: 14:06 (11:06 UTC)

Előrejelzés

A jelentés 3 órával és 8 perccel ezelõtt készült, 07:58 UTC
Az előrejelzés 13-én 09 óra UTC és 14-én 09 óra UTC között érvényes
Déli szél 6 kt széllökések: 16 kt
Látótávolság: 8000 m
Szakadozott felhőzet 2000 lábon
13-én 12 óra UTC és 14-én 06 óra UTC között ideiglenes
Látótávolság: 4000 m
Szakadozott felhőzet 1100 lábon
enyhe havazás

TAF: UUDL 130758Z 1309/1409 17003G08MPS 8000 BKN020 TX01/1309Z TNM02/1323Z TEMPO 1312/1406 4000 -SN BKN011

Meteorológiai megfigyelések és előrejelzések több, mint 4000 repülőtéren (METAR és TAF jelentéseket).

A térképen piros és sárga pontok jelzik az elérhető meteorológiai állomásokat.

Mozgassa az egeret a pont fölött, hogy megjelenjen az állomás neve.

Azután kattintson az időjárási megfigyelések és előrejelzések megtekintéséhez.

A térkép megváltoztatása: kattintson a fekete keresztel jelölt zöld gombra ráközelítéshez, a vonallal jelölt zöld gombra távolításhoz, vagy a zöld nyilakra a szomszédos térképek eléréséhez.


METAR-TAF: